createdAt,value
2019-02-26T00:00:20.164Z,910.60
2019-02-26T00:02:21.347Z,910.67
2019-02-26T00:03:19.738Z,910.71
2019-02-26T00:04:23.199Z,910.71
2019-02-26T00:05:21.392Z,910.78
2019-02-26T00:06:20.558Z,910.81
2019-02-26T00:07:23.411Z,910.81
2019-02-26T00:08:21.505Z,910.86
2019-02-26T00:09:22.375Z,910.89
2019-02-26T00:10:19.777Z,910.91
2019-02-26T00:11:18.814Z,910.92
2019-02-26T00:12:21.934Z,910.88
2019-02-26T00:13:18.734Z,910.88
2019-02-26T00:14:20.335Z,910.88
2019-02-26T00:15:18.684Z,910.85
2019-02-26T00:16:20.548Z,910.93
2019-02-26T00:17:19.596Z,910.91
2019-02-26T00:18:19.569Z,910.91
2019-02-26T00:19:21.719Z,910.97
2019-02-26T00:20:18.526Z,911.00
2019-02-26T00:21:19.893Z,911.02
2019-02-26T00:22:18.437Z,911.03
2019-02-26T00:23:19.794Z,911.09
2019-02-26T00:24:18.410Z,911.08
2019-02-26T00:25:20.348Z,911.09
2019-02-26T00:26:20.115Z,911.08
2019-02-26T00:27:18.288Z,911.06
2019-02-26T00:28:19.709Z,911.03
2019-02-26T00:29:18.223Z,911.03
2019-02-26T00:30:18.636Z,911.08
2019-02-26T00:31:19.270Z,911.13
2019-02-26T00:32:18.530Z,911.17
2019-02-26T00:33:21.486Z,911.24
2019-02-26T00:34:18.675Z,911.28
2019-02-26T00:35:19.080Z,911.32
2019-02-26T00:36:18.004Z,911.37
2019-02-26T00:37:19.576Z,911.37
2019-02-26T00:38:19.767Z,911.38
2019-02-26T00:39:17.897Z,911.38
2019-02-26T00:40:20.288Z,911.40
2019-02-26T00:41:20.290Z,911.47
2019-02-26T00:42:19.569Z,911.56
2019-02-26T00:43:20.980Z,911.66
2019-02-26T00:44:18.623Z,911.68
2019-02-26T00:45:22.273Z,911.72
2019-02-26T00:46:17.988Z,911.78
2019-02-26T00:47:17.636Z,911.76
2019-02-26T00:48:17.605Z,911.79
2019-02-26T00:49:19.089Z,911.82
2019-02-26T00:50:17.562Z,911.82
2019-02-26T00:51:18.712Z,911.79
2019-02-26T00:52:17.486Z,911.84
2019-02-26T00:53:19.491Z,911.84
2019-02-26T00:54:20.204Z,911.87
2019-02-26T00:55:17.377Z,911.91
2019-02-26T00:56:17.356Z,911.97
2019-02-26T00:57:17.362Z,912.01
2019-02-26T00:58:17.282Z,912.07
2019-02-26T00:59:17.254Z,912.10
2019-02-26T01:00:17.214Z,912.14
2019-02-26T01:01:19.280Z,912.17
2019-02-26T01:02:17.149Z,912.20
2019-02-26T01:03:17.123Z,912.21
2019-02-26T01:04:17.110Z,912.24
2019-02-26T01:05:17.064Z,912.26
2019-02-26T01:06:17.018Z,912.23
2019-02-26T01:07:19.009Z,912.27
2019-02-26T01:08:17.503Z,912.25
2019-02-26T01:09:16.909Z,912.28
2019-02-26T01:10:20.621Z,912.31
2019-02-26T01:11:16.958Z,912.37
2019-02-26T01:12:18.218Z,912.39
2019-02-26T01:13:16.907Z,912.39
2019-02-26T01:14:18.587Z,912.44
2019-02-26T01:15:16.727Z,912.45
2019-02-26T01:16:16.894Z,912.44
2019-02-26T01:17:18.616Z,912.45
2019-02-26T01:19:17.610Z,912.45
2019-02-26T01:20:16.587Z,912.41
2019-02-26T01:21:16.542Z,912.41
2019-02-26T01:22:16.516Z,912.41
2019-02-26T01:23:18.701Z,912.43
2019-02-26T01:24:16.446Z,912.45
2019-02-26T01:25:18.488Z,912.46
2019-02-26T01:26:16.368Z,912.46
2019-02-26T01:27:16.400Z,912.52
2019-02-26T01:28:18.084Z,912.50
2019-02-26T01:29:18.510Z,912.53
2019-02-26T01:30:21.286Z,912.49
2019-02-26T01:31:16.228Z,912.46
2019-02-26T01:32:17.884Z,912.47
2019-02-26T01:33:16.160Z,912.47
2019-02-26T01:34:17.966Z,912.45
2019-02-26T01:35:18.267Z,912.44
2019-02-26T01:36:16.959Z,912.45
2019-02-26T01:37:16.037Z,912.47
2019-02-26T01:38:16.569Z,912.47
2019-02-26T01:39:16.244Z,912.47
2019-02-26T01:40:18.498Z,912.47
2019-02-26T01:41:17.852Z,912.43
2019-02-26T01:42:17.671Z,912.49
2019-02-26T01:43:15.837Z,912.48
2019-02-26T01:44:15.867Z,912.48
2019-02-26T01:45:15.782Z,912.45
2019-02-26T01:46:16.929Z,912.46
2019-02-26T01:47:17.250Z,912.44
2019-02-26T01:48:16.715Z,912.42
2019-02-26T01:49:17.044Z,912.43
2019-02-26T01:50:16.256Z,912.43
2019-02-26T01:51:17.005Z,912.49
2019-02-26T01:52:17.283Z,912.49
2019-02-26T01:53:17.059Z,912.54
2019-02-26T01:54:16.762Z,912.54
2019-02-26T01:55:16.153Z,912.54
2019-02-26T01:56:15.411Z,912.58
2019-02-26T01:57:17.253Z,912.63
2019-02-26T01:58:16.541Z,912.64
2019-02-26T01:59:18.165Z,912.70
2019-02-26T02:00:15.305Z,912.65
2019-02-26T02:01:16.835Z,912.68
2019-02-26T02:02:17.558Z,912.63
2019-02-26T02:03:15.191Z,912.60
2019-02-26T02:04:17.052Z,912.56
2019-02-26T02:05:15.254Z,912.55
2019-02-26T02:06:15.934Z,912.56
2019-02-26T02:07:15.073Z,912.56
2019-02-26T02:08:15.569Z,912.60
2019-02-26T02:09:16.375Z,912.56
2019-02-26T02:10:14.976Z,912.58
2019-02-26T02:11:15.157Z,912.60
2019-02-26T02:12:14.903Z,912.59
2019-02-26T02:13:14.868Z,912.60
2019-02-26T02:14:16.625Z,912.57
2019-02-26T02:15:15.773Z,912.58
2019-02-26T02:16:14.766Z,912.58
2019-02-26T02:17:14.730Z,912.54
2019-02-26T02:18:14.734Z,912.54
2019-02-26T02:19:17.992Z,912.51
2019-02-26T02:20:18.008Z,912.49
2019-02-26T02:21:14.610Z,912.48
2019-02-26T02:22:16.326Z,912.47
2019-02-26T02:23:14.542Z,912.45
2019-02-26T02:24:15.564Z,912.42
2019-02-26T02:25:14.474Z,912.45
2019-02-26T02:26:15.657Z,912.43
2019-02-26T02:28:16.655Z,912.40
2019-02-26T02:29:16.610Z,912.44
2019-02-26T02:30:18.507Z,912.47
2019-02-26T02:31:14.290Z,912.51
2019-02-26T02:32:14.295Z,912.50
2019-02-26T02:33:17.288Z,912.54
2019-02-26T02:34:14.185Z,912.49
2019-02-26T02:35:17.851Z,912.50
2019-02-26T02:36:15.047Z,912.44
2019-02-26T02:37:15.403Z,912.45
2019-02-26T02:38:19.542Z,912.49
2019-02-26T02:39:15.632Z,912.46
2019-02-26T02:40:13.988Z,912.45
2019-02-26T02:41:13.963Z,912.44
2019-02-26T02:42:16.229Z,912.44
2019-02-26T02:43:16.155Z,912.39
2019-02-26T02:44:15.427Z,912.37
2019-02-26T02:45:16.803Z,912.33
2019-02-26T02:46:13.795Z,912.35
2019-02-26T02:47:13.770Z,912.36
2019-02-26T02:48:14.179Z,912.37
2019-02-26T02:49:15.706Z,912.34
2019-02-26T02:50:15.095Z,912.34
2019-02-26T02:51:13.978Z,912.36
2019-02-26T02:52:13.603Z,912.29
2019-02-26T02:53:13.578Z,912.30
2019-02-26T02:54:15.540Z,912.27
2019-02-26T02:55:16.109Z,912.27
2019-02-26T02:56:15.348Z,912.21
2019-02-26T02:57:13.485Z,912.21
2019-02-26T02:58:15.890Z,912.12
2019-02-26T02:59:14.175Z,912.11
2019-02-26T03:00:13.336Z,912.05
2019-02-26T03:01:13.831Z,912.04
2019-02-26T03:02:15.083Z,912.07
2019-02-26T03:03:13.259Z,912.05
2019-02-26T03:04:17.260Z,912.01
2019-02-26T03:05:13.197Z,912.02
2019-02-26T03:06:13.500Z,912.05
2019-02-26T03:07:15.082Z,912.04
2019-02-26T03:08:13.968Z,912.02
2019-02-26T03:09:15.263Z,912.00
2019-02-26T03:10:13.035Z,911.98
2019-02-26T03:11:12.989Z,911.99
2019-02-26T03:12:12.958Z,912.04
2019-02-26T03:13:14.381Z,911.99
2019-02-26T03:14:13.838Z,912.02
2019-02-26T03:15:12.840Z,912.00
2019-02-26T03:16:13.542Z,912.02
2019-02-26T03:17:14.754Z,911.98
2019-02-26T03:18:14.448Z,911.91
2019-02-26T03:19:14.501Z,911.92
2019-02-26T03:20:12.728Z,911.90
2019-02-26T03:21:12.652Z,911.89
2019-02-26T03:22:13.555Z,911.90
2019-02-26T03:23:16.109Z,911.87
2019-02-26T03:24:12.569Z,911.88
2019-02-26T03:25:14.326Z,911.90
2019-02-26T03:26:14.692Z,911.89
2019-02-26T03:27:12.448Z,911.90
2019-02-26T03:28:12.687Z,911.85
2019-02-26T03:29:12.384Z,911.88
2019-02-26T03:30:20.572Z,911.85
2019-02-26T03:31:12.337Z,911.86
2019-02-26T03:32:12.306Z,911.85
2019-02-26T03:33:12.275Z,911.85
2019-02-26T03:34:15.690Z,911.83
2019-02-26T03:35:13.215Z,911.81
2019-02-26T03:36:13.910Z,911.79
2019-02-26T03:37:12.146Z,911.78
2019-02-26T03:38:12.111Z,911.78
2019-02-26T03:39:12.481Z,911.72
2019-02-26T03:40:12.055Z,911.70
2019-02-26T03:41:12.013Z,911.67
2019-02-26T03:42:14.164Z,911.68
2019-02-26T03:43:13.236Z,911.67
2019-02-26T03:44:11.960Z,911.70
2019-02-26T03:45:11.899Z,911.70
2019-02-26T03:46:11.854Z,911.67
2019-02-26T03:47:11.853Z,911.66
2019-02-26T03:48:11.791Z,911.64
2019-02-26T03:49:11.753Z,911.62
2019-02-26T03:50:11.705Z,911.62
2019-02-26T03:51:11.689Z,911.62
2019-02-26T03:52:15.360Z,911.63
2019-02-26T03:53:11.611Z,911.66
2019-02-26T03:54:11.582Z,911.64
2019-02-26T03:55:14.075Z,911.66
2019-02-26T03:56:12.557Z,911.63
2019-02-26T03:57:14.070Z,911.67
2019-02-26T03:58:11.465Z,911.69
2019-02-26T03:59:11.849Z,911.67
2019-02-26T04:00:13.999Z,911.67
2019-02-26T04:01:13.669Z,911.66
2019-02-26T04:02:11.883Z,911.70
2019-02-26T04:03:12.592Z,911.70
2019-02-26T04:04:11.271Z,911.70
2019-02-26T04:05:11.234Z,911.70
2019-02-26T04:06:12.163Z,911.73
2019-02-26T04:07:11.172Z,911.69
2019-02-26T04:08:11.170Z,911.70
2019-02-26T04:09:13.552Z,911.68
2019-02-26T04:10:11.077Z,911.67
2019-02-26T04:12:12.979Z,911.67
2019-02-26T04:13:10.978Z,911.66
2019-02-26T04:14:12.655Z,911.67
2019-02-26T04:15:10.911Z,911.69
2019-02-26T04:16:10.930Z,911.68
2019-02-26T04:17:10.853Z,911.63
2019-02-26T04:18:10.809Z,911.64
2019-02-26T04:19:10.766Z,911.61
2019-02-26T04:20:10.728Z,911.58
2019-02-26T04:21:12.144Z,911.60
2019-02-26T04:22:12.638Z,911.61
2019-02-26T04:23:11.442Z,911.59
2019-02-26T04:24:11.407Z,911.58
2019-02-26T04:25:10.595Z,911.55
2019-02-26T04:26:10.758Z,911.54
2019-02-26T04:27:10.513Z,911.52
2019-02-26T04:28:11.067Z,911.50
2019-02-26T04:29:10.441Z,911.50
2019-02-26T04:30:10.999Z,911.49
2019-02-26T04:31:10.384Z,911.47
2019-02-26T04:32:12.217Z,911.41
2019-02-26T04:33:11.550Z,911.46
2019-02-26T04:34:10.323Z,911.42
2019-02-26T04:35:10.253Z,911.43
2019-02-26T04:36:11.849Z,911.40
2019-02-26T04:37:10.989Z,911.40
2019-02-26T04:38:10.162Z,911.44
2019-02-26T04:39:10.795Z,911.45
2019-02-26T04:40:12.054Z,911.46
2019-02-26T04:41:12.660Z,911.46
2019-02-26T04:42:11.979Z,911.46
2019-02-26T04:43:10.910Z,911.47
2019-02-26T04:44:09.961Z,911.45
2019-02-26T04:45:09.953Z,911.43
2019-02-26T04:46:10.921Z,911.42
2019-02-26T04:47:09.869Z,911.41
2019-02-26T04:48:09.823Z,911.41
2019-02-26T04:49:09.800Z,911.39
2019-02-26T04:50:09.788Z,911.38
2019-02-26T04:51:09.754Z,911.37
2019-02-26T04:52:10.921Z,911.41
2019-02-26T04:53:11.043Z,911.37
2019-02-26T04:54:09.640Z,911.35
2019-02-26T04:55:09.614Z,911.36
2019-02-26T04:56:12.835Z,911.34
2019-02-26T04:57:09.551Z,911.30
2019-02-26T04:58:12.214Z,911.27
2019-02-26T04:59:11.734Z,911.28
2019-02-26T05:00:10.649Z,911.30
2019-02-26T05:01:10.245Z,911.29
2019-02-26T05:02:09.379Z,911.23
2019-02-26T05:03:13.591Z,911.26
2019-02-26T05:04:09.315Z,911.28
2019-02-26T05:05:09.297Z,911.25
2019-02-26T05:06:10.810Z,911.24
2019-02-26T05:07:11.366Z,911.27
2019-02-26T05:08:10.513Z,911.25
2019-02-26T05:09:10.600Z,911.25
2019-02-26T05:10:09.315Z,911.24
2019-02-26T05:11:09.104Z,911.22
2019-02-26T05:12:09.059Z,911.20
2019-02-26T05:13:09.702Z,911.19
2019-02-26T05:14:09.856Z,911.19
2019-02-26T05:15:11.659Z,911.21
2019-02-26T05:16:09.130Z,911.24
2019-02-26T05:17:08.876Z,911.25
2019-02-26T05:18:08.866Z,911.23
2019-02-26T05:19:10.423Z,911.20
2019-02-26T05:20:10.624Z,911.18
2019-02-26T05:21:10.833Z,911.18
2019-02-26T05:22:08.957Z,911.15
2019-02-26T05:23:08.708Z,911.19
2019-02-26T05:24:08.662Z,911.17
2019-02-26T05:25:13.718Z,911.16
2019-02-26T05:26:11.531Z,911.14
2019-02-26T05:27:10.173Z,911.15
2019-02-26T05:28:11.486Z,911.13
2019-02-26T05:29:08.507Z,911.16
2019-02-26T05:30:09.820Z,911.16
2019-02-26T05:31:09.151Z,911.18
2019-02-26T05:32:09.328Z,911.19
2019-02-26T05:33:08.375Z,911.18
2019-02-26T05:34:08.367Z,911.18
2019-02-26T05:35:08.316Z,911.22
2019-02-26T05:36:09.451Z,911.20
2019-02-26T05:37:11.103Z,911.23
2019-02-26T05:38:09.638Z,911.27
2019-02-26T05:39:08.175Z,911.26
2019-02-26T05:40:10.426Z,911.24
2019-02-26T05:41:08.120Z,911.28
2019-02-26T05:42:08.108Z,911.28
2019-02-26T05:43:08.035Z,911.27
2019-02-26T05:44:10.531Z,911.31
2019-02-26T05:45:09.378Z,911.32
2019-02-26T05:46:08.050Z,911.32
2019-02-26T05:47:07.925Z,911.29
2019-02-26T05:48:07.902Z,911.29
2019-02-26T05:49:12.533Z,911.27
2019-02-26T05:50:10.150Z,911.26
2019-02-26T05:51:10.883Z,911.23
2019-02-26T05:52:07.758Z,911.23
2019-02-26T05:53:08.414Z,911.21
2019-02-26T05:54:08.227Z,911.19
2019-02-26T05:55:07.650Z,911.19
2019-02-26T05:56:08.896Z,911.20
2019-02-26T05:57:10.778Z,911.16
2019-02-26T05:58:09.404Z,911.18
2019-02-26T05:59:09.629Z,911.13
2019-02-26T06:00:08.366Z,911.12
2019-02-26T06:01:07.448Z,911.14
2019-02-26T06:02:07.448Z,911.09
2019-02-26T06:03:09.545Z,911.10
2019-02-26T06:04:09.476Z,911.07
2019-02-26T06:05:07.439Z,911.09
2019-02-26T06:06:07.297Z,911.05
2019-02-26T06:07:07.283Z,911.04
2019-02-26T06:08:07.250Z,910.99
2019-02-26T06:09:07.713Z,910.99
2019-02-26T06:10:07.173Z,910.97
2019-02-26T06:11:07.151Z,910.93
2019-02-26T06:12:07.109Z,910.90
2019-02-26T06:13:07.639Z,910.88
2019-02-26T06:14:09.687Z,910.86
2019-02-26T06:15:08.178Z,910.85
2019-02-26T06:16:07.568Z,910.80
2019-02-26T06:17:07.276Z,910.78
2019-02-26T06:18:06.921Z,910.75
2019-02-26T06:19:08.516Z,910.74
2019-02-26T06:20:08.057Z,910.75
2019-02-26T06:21:06.833Z,910.70
2019-02-26T06:22:11.544Z,910.67
2019-02-26T06:23:06.744Z,910.65
2019-02-26T06:24:06.721Z,910.63
2019-02-26T06:25:12.451Z,910.64
2019-02-26T06:26:10.721Z,910.65
2019-02-26T06:27:08.640Z,910.64
2019-02-26T06:28:09.598Z,910.60
2019-02-26T06:29:06.535Z,910.57
2019-02-26T06:30:09.172Z,910.55
2019-02-26T06:31:06.490Z,910.52
2019-02-26T06:32:07.741Z,910.53
2019-02-26T06:33:07.131Z,910.58
2019-02-26T06:34:08.801Z,910.56
2019-02-26T06:35:08.409Z,910.56
2019-02-26T06:36:06.511Z,910.57
2019-02-26T06:37:07.163Z,910.59
2019-02-26T06:38:08.647Z,910.60
2019-02-26T06:39:06.230Z,910.60
2019-02-26T06:40:07.447Z,910.59
2019-02-26T06:41:06.170Z,910.65
2019-02-26T06:42:07.626Z,910.72
2019-02-26T06:43:06.102Z,910.75
2019-02-26T06:44:06.070Z,910.73
2019-02-26T06:45:08.091Z,910.73
2019-02-26T06:46:09.177Z,910.70
2019-02-26T06:47:06.891Z,910.71
2019-02-26T06:48:05.975Z,910.70
2019-02-26T06:49:05.911Z,910.69
2019-02-26T06:50:08.195Z,910.69
2019-02-26T06:51:07.178Z,910.70
2019-02-26T06:52:06.092Z,910.71
2019-02-26T06:53:08.514Z,910.65
2019-02-26T06:54:05.722Z,910.63
2019-02-26T06:55:07.672Z,910.63
2019-02-26T06:56:05.684Z,910.60
2019-02-26T06:57:05.635Z,910.60
2019-02-26T06:58:05.596Z,910.60
2019-02-26T06:59:07.428Z,910.62
2019-02-26T07:00:05.584Z,910.65
2019-02-26T07:01:07.164Z,910.64
2019-02-26T07:02:05.510Z,910.64
2019-02-26T07:03:05.449Z,910.64
2019-02-26T07:04:05.416Z,910.65
2019-02-26T07:05:05.385Z,910.64
2019-02-26T07:06:05.351Z,910.64
2019-02-26T07:07:06.932Z,910.65
2019-02-26T07:08:06.594Z,910.67
2019-02-26T07:09:05.266Z,910.68
2019-02-26T07:10:05.201Z,910.71
2019-02-26T07:11:07.128Z,910.72
2019-02-26T07:12:05.138Z,910.75
2019-02-26T07:13:06.953Z,910.76
2019-02-26T07:14:05.662Z,910.76
2019-02-26T07:15:05.055Z,910.76
2019-02-26T07:16:05.306Z,910.80
2019-02-26T07:17:04.996Z,910.79
2019-02-26T07:18:07.291Z,910.80
2019-02-26T07:19:06.528Z,910.79
2019-02-26T07:20:04.880Z,910.82
2019-02-26T07:21:04.869Z,910.77
2019-02-26T07:22:05.421Z,910.79
2019-02-26T07:23:05.878Z,910.77
2019-02-26T07:24:04.742Z,910.78
2019-02-26T07:25:06.416Z,910.81
2019-02-26T07:26:04.699Z,910.80
2019-02-26T07:27:06.582Z,910.77
2019-02-26T07:28:04.633Z,910.82
2019-02-26T07:29:05.850Z,910.86
2019-02-26T07:30:04.589Z,910.84
2019-02-26T07:31:05.517Z,910.86
2019-02-26T07:32:04.501Z,910.83
2019-02-26T07:33:05.332Z,910.87
2019-02-26T07:34:04.433Z,910.83
2019-02-26T07:35:06.450Z,910.87
2019-02-26T07:36:04.370Z,910.85
2019-02-26T07:37:06.326Z,910.88
2019-02-26T07:38:04.292Z,910.90
2019-02-26T07:39:05.118Z,910.91
2019-02-26T07:40:05.657Z,910.92
2019-02-26T07:41:06.060Z,910.96
2019-02-26T07:42:04.163Z,911.01
2019-02-26T07:43:06.983Z,911.00
2019-02-26T07:44:04.100Z,911.02
2019-02-26T07:45:04.080Z,911.02
2019-02-26T07:46:04.054Z,911.08
2019-02-26T07:47:06.137Z,911.10
2019-02-26T07:48:03.988Z,911.12
2019-02-26T07:49:04.746Z,911.11
2019-02-26T07:50:04.629Z,911.14
2019-02-26T07:51:03.941Z,911.16
2019-02-26T07:52:06.050Z,911.12
2019-02-26T07:53:03.820Z,911.15
2019-02-26T07:54:03.780Z,911.14
2019-02-26T07:55:05.656Z,911.13
2019-02-26T07:56:04.575Z,911.15
2019-02-26T07:57:03.688Z,911.14
2019-02-26T07:58:03.640Z,911.16
2019-02-26T07:59:06.781Z,911.18
2019-02-26T08:00:03.583Z,911.19
2019-02-26T08:01:03.787Z,911.22
2019-02-26T08:02:04.410Z,911.21
2019-02-26T08:03:04.682Z,911.26
2019-02-26T08:04:03.456Z,911.24
2019-02-26T08:05:03.411Z,911.27
2019-02-26T08:06:06.289Z,911.26
2019-02-26T08:07:03.757Z,911.31
2019-02-26T08:08:03.321Z,911.29
2019-02-26T08:09:04.792Z,911.26
2019-02-26T08:10:03.255Z,911.24
2019-02-26T08:11:03.228Z,911.23
2019-02-26T08:12:04.350Z,911.21
2019-02-26T08:13:03.418Z,911.28
2019-02-26T08:14:03.128Z,911.29
2019-02-26T08:15:04.973Z,911.24
2019-02-26T08:16:04.971Z,911.25
2019-02-26T08:17:03.953Z,911.26
2019-02-26T08:18:04.915Z,911.25
2019-02-26T08:19:02.951Z,911.22
2019-02-26T08:20:06.849Z,911.21
2019-02-26T08:21:04.880Z,911.21
2019-02-26T08:22:02.858Z,911.20
2019-02-26T08:26:02.807Z,911.35
2019-02-26T08:27:03.503Z,911.38
2019-02-26T08:28:02.664Z,911.45
2019-02-26T08:29:04.978Z,911.47
2019-02-26T08:30:02.610Z,911.48
2019-02-26T08:31:02.558Z,911.53
2019-02-26T08:32:02.535Z,911.54
2019-02-26T08:33:04.831Z,911.54
2019-02-26T08:34:02.561Z,911.57
2019-02-26T08:35:02.442Z,911.53
2019-02-26T08:36:02.392Z,911.53
2019-02-26T08:37:02.368Z,911.50
2019-02-26T08:38:05.630Z,911.52
2019-02-26T08:39:02.293Z,911.47
2019-02-26T08:40:02.278Z,911.47
2019-02-26T08:41:02.239Z,911.46
2019-02-26T08:42:02.206Z,911.49
2019-02-26T08:43:02.176Z,911.46
2019-02-26T08:44:02.131Z,911.42
2019-02-26T08:45:02.102Z,911.43
2019-02-26T08:46:02.071Z,911.41
2019-02-26T08:47:06.185Z,911.43
2019-02-26T08:48:02.018Z,911.42
2019-02-26T08:49:08.274Z,911.44
2019-02-26T08:50:04.128Z,911.43
2019-02-26T08:51:05.442Z,911.40
2019-02-26T08:52:01.881Z,911.38
2019-02-26T08:53:01.845Z,911.38
2019-02-26T08:54:01.812Z,911.34
2019-02-26T08:55:01.789Z,911.31
2019-02-26T08:56:03.947Z,911.34
2019-02-26T08:57:01.716Z,911.32
2019-02-26T08:58:01.680Z,911.36
2019-02-26T08:59:03.509Z,911.34
2019-02-26T09:00:01.602Z,911.38
2019-02-26T09:01:01.585Z,911.34
2019-02-26T09:02:01.538Z,911.36
2019-02-26T09:03:01.533Z,911.37
2019-02-26T09:04:01.503Z,911.36
2019-02-26T09:05:02.664Z,911.43
2019-02-26T09:06:10.929Z,911.41
2019-02-26T09:07:02.125Z,911.45
2019-02-26T09:08:01.555Z,911.50
2019-02-26T09:09:02.681Z,911.53
2019-02-26T09:10:01.276Z,911.55
2019-02-26T09:11:03.361Z,911.56
2019-02-26T09:12:03.054Z,911.54
2019-02-26T09:13:01.210Z,911.52
2019-02-26T09:14:03.953Z,911.56
2019-02-26T09:15:01.118Z,911.52
2019-02-26T09:16:02.895Z,911.53
2019-02-26T09:17:02.063Z,911.56
2019-02-26T09:18:01.008Z,911.54
2019-02-26T09:19:00.985Z,911.50
2019-02-26T09:20:09.212Z,911.48
2019-02-26T09:21:00.911Z,911.53
2019-02-26T09:22:00.879Z,911.56
2019-02-26T09:23:01.460Z,911.58
2019-02-26T09:24:02.625Z,911.59
2019-02-26T09:25:02.214Z,911.60
2019-02-26T09:26:02.578Z,911.61
2019-02-26T09:27:02.391Z,911.62
2019-02-26T09:28:00.694Z,911.60
2019-02-26T09:29:00.656Z,911.61
2019-02-26T09:30:00.622Z,911.63
2019-02-26T09:31:01.940Z,911.63
2019-02-26T09:32:00.553Z,911.62
2019-02-26T09:33:01.001Z,911.61
2019-02-26T09:34:00.489Z,911.64
2019-02-26T09:35:02.297Z,911.62
2019-02-26T09:36:00.419Z,911.63
2019-02-26T09:37:01.290Z,911.60
2019-02-26T09:38:00.911Z,911.62
2019-02-26T09:39:00.332Z,911.58
2019-02-26T09:40:02.841Z,911.61
2019-02-26T09:41:00.596Z,911.64
2019-02-26T09:42:02.255Z,911.64
2019-02-26T09:43:00.273Z,911.69
2019-02-26T09:44:01.926Z,911.70
2019-02-26T09:45:00.372Z,911.68
2019-02-26T09:46:00.095Z,911.69
2019-02-26T09:47:02.049Z,911.68
2019-02-26T09:48:01.192Z,911.68
2019-02-26T09:49:00.944Z,911.66
2019-02-26T09:49:59.948Z,911.67
2019-02-26T09:50:59.976Z,911.68
2019-02-26T09:52:01.450Z,911.71
2019-02-26T09:52:59.854Z,911.72
2019-02-26T09:53:59.838Z,911.74
2019-02-26T09:54:59.816Z,911.79
2019-02-26T09:55:59.774Z,911.81
2019-02-26T09:57:59.692Z,911.78
2019-02-26T09:58:59.656Z,911.79
2019-02-26T10:00:00.205Z,911.80
2019-02-26T10:00:59.607Z,911.79
2019-02-26T10:02:01.207Z,911.76
2019-02-26T10:02:59.545Z,911.81
2019-02-26T10:04:01.324Z,911.80
2019-02-26T10:04:59.560Z,911.79
2019-02-26T10:05:59.423Z,911.84
2019-02-26T10:06:59.390Z,911.85
2019-02-26T10:08:00.496Z,911.85
2019-02-26T10:08:59.355Z,911.91
2019-02-26T10:10:00.433Z,911.94
2019-02-26T10:11:00.342Z,911.97
2019-02-26T10:11:59.235Z,911.99
2019-02-26T10:13:01.515Z,912.00
2019-02-26T10:13:59.171Z,912.02
2019-02-26T10:15:00.181Z,912.03
2019-02-26T10:16:01.228Z,912.03
2019-02-26T10:16:59.069Z,912.08
2019-02-26T10:18:01.510Z,912.05
2019-02-26T10:18:59.010Z,912.06
2019-02-26T10:19:59.355Z,912.02
2019-02-26T10:20:58.934Z,912.08
2019-02-26T10:22:00.308Z,912.09
2019-02-26T10:23:02.760Z,912.11
2019-02-26T10:23:59.526Z,912.13
2019-02-26T10:24:58.815Z,912.15
2019-02-26T10:26:00.174Z,912.19
2019-02-26T10:27:00.762Z,912.21
2019-02-26T10:28:03.035Z,912.27
2019-02-26T10:29:04.222Z,912.26
2019-02-26T10:29:58.649Z,912.26
2019-02-26T10:31:03.235Z,912.31
2019-02-26T10:31:58.579Z,912.29
2019-02-26T10:33:02.001Z,912.27
2019-02-26T10:33:58.524Z,912.29
2019-02-26T10:34:58.493Z,912.24
2019-02-26T10:35:58.457Z,912.27
2019-02-26T10:36:58.418Z,912.28
2019-02-26T10:38:00.448Z,912.34
2019-02-26T10:39:00.232Z,912.34
2019-02-26T10:39:58.493Z,912.37
2019-02-26T10:40:59.700Z,912.35
2019-02-26T10:42:01.938Z,912.36
2019-02-26T10:42:58.243Z,912.36
2019-02-26T10:43:58.197Z,912.41
2019-02-26T10:44:58.189Z,912.44
2019-02-26T10:45:58.334Z,912.43
2019-02-26T10:46:58.915Z,912.46
2019-02-26T10:48:00.948Z,912.47
2019-02-26T10:48:58.047Z,912.47
2019-02-26T10:49:58.019Z,912.53
2019-02-26T10:50:57.989Z,912.50
2019-02-26T10:53:06.516Z,912.52
2019-02-26T10:53:59.976Z,912.58
2019-02-26T10:54:57.863Z,912.58
2019-02-26T10:55:57.823Z,912.65
2019-02-26T10:57:00.181Z,912.65
2019-02-26T10:57:58.609Z,912.67
2019-02-26T10:59:02.786Z,912.69
2019-02-26T10:59:59.628Z,912.69
2019-02-26T11:00:59.363Z,912.73
2019-02-26T11:02:00.155Z,912.72
2019-02-26T11:02:57.625Z,912.66
2019-02-26T11:03:57.586Z,912.73
2019-02-26T11:04:57.553Z,912.74
2019-02-26T11:05:57.513Z,912.76
2019-02-26T11:06:59.419Z,912.75
2019-02-26T11:07:59.715Z,912.75
2019-02-26T11:08:59.280Z,912.77
2019-02-26T11:09:58.936Z,912.75
2019-02-26T11:10:57.366Z,912.78
2019-02-26T11:11:58.371Z,912.79
2019-02-26T11:12:59.424Z,912.77
2019-02-26T11:13:57.302Z,912.77
2019-02-26T11:14:58.564Z,912.77
2019-02-26T11:15:59.820Z,912.77
2019-02-26T11:16:57.181Z,912.82
2019-02-26T11:17:57.158Z,912.84
2019-02-26T11:18:58.811Z,912.85
2019-02-26T11:19:58.623Z,912.81
2019-02-26T11:20:59.204Z,912.79
2019-02-26T11:21:58.688Z,912.74
2019-02-26T11:22:57.054Z,912.75
2019-02-26T11:23:58.403Z,912.76
2019-02-26T11:24:58.494Z,912.71
2019-02-26T11:25:56.906Z,912.72
2019-02-26T11:26:56.865Z,912.69
2019-02-26T11:27:56.838Z,912.70
2019-02-26T11:28:56.816Z,912.70
2019-02-26T11:29:57.675Z,912.72
2019-02-26T11:30:56.815Z,912.79
2019-02-26T11:31:56.722Z,912.82
2019-02-26T11:33:02.022Z,912.83
2019-02-26T11:33:59.521Z,912.78
2019-02-26T11:34:57.661Z,912.76
2019-02-26T11:35:56.598Z,912.73
2019-02-26T11:36:58.391Z,912.76
2019-02-26T11:37:57.736Z,912.78
2019-02-26T11:38:56.521Z,912.79
2019-02-26T11:39:57.708Z,912.81
2019-02-26T11:40:56.444Z,912.76
2019-02-26T11:41:58.624Z,912.74
2019-02-26T11:42:56.385Z,912.83
2019-02-26T11:43:56.520Z,912.80
2019-02-26T11:44:56.399Z,912.83
2019-02-26T11:45:56.658Z,912.86
2019-02-26T11:46:56.603Z,912.92
2019-02-26T11:47:58.188Z,912.92
2019-02-26T11:48:57.455Z,912.93
2019-02-26T11:49:56.180Z,912.94
2019-02-26T11:50:56.154Z,912.95
2019-02-26T11:51:56.118Z,912.96
2019-02-26T11:52:56.175Z,912.98
2019-02-26T11:53:56.066Z,912.90
2019-02-26T11:54:56.309Z,912.91
2019-02-26T11:55:56.984Z,912.93
2019-02-26T11:56:55.959Z,912.90
2019-02-26T11:57:55.947Z,912.92
2019-02-26T11:58:55.902Z,912.90
2019-02-26T11:59:57.190Z,912.88
2019-02-26T12:00:57.252Z,912.87
2019-02-26T12:01:57.234Z,912.88
2019-02-26T12:02:55.832Z,912.93
2019-02-26T12:03:56.241Z,912.90
2019-02-26T12:04:57.551Z,912.91
2019-02-26T12:05:56.636Z,912.90
2019-02-26T12:06:55.902Z,912.98
2019-02-26T12:07:56.434Z,912.92
2019-02-26T12:08:55.605Z,912.94
2019-02-26T12:09:57.496Z,912.97
2019-02-26T12:11:01.023Z,912.98
2019-02-26T12:11:56.055Z,912.98
2019-02-26T12:12:56.825Z,912.99
2019-02-26T12:13:55.461Z,913.00
2019-02-26T12:14:55.431Z,912.96
2019-02-26T12:15:55.392Z,912.98
2019-02-26T12:16:55.365Z,912.96
2019-02-26T12:17:56.409Z,912.94
2019-02-26T12:18:55.306Z,912.98
2019-02-26T12:19:55.857Z,912.97
2019-02-26T12:20:55.247Z,912.99
2019-02-26T12:21:57.275Z,912.97
2019-02-26T12:22:55.455Z,912.99
2019-02-26T12:23:55.148Z,913.03
2019-02-26T12:24:55.989Z,913.02
2019-02-26T12:25:55.525Z,913.05
2019-02-26T12:26:55.058Z,913.05
2019-02-26T12:27:55.016Z,913.06
2019-02-26T12:28:57.016Z,913.02
2019-02-26T12:29:54.960Z,913.02
2019-02-26T12:30:54.930Z,912.98
2019-02-26T12:31:55.731Z,913.01
2019-02-26T12:32:55.120Z,912.98
2019-02-26T12:33:54.851Z,913.00
2019-02-26T12:34:54.823Z,913.02
2019-02-26T12:35:56.320Z,912.97
2019-02-26T12:36:57.276Z,912.97